Time;durP1;ratioP1;P1;durP2;ratioP2;P2;SDS_P1;SDS_P2;PMS_P1;PMS_P2;Temp;Humidity;BMP_temperature;BMP_pressure;BME280_temperature;BME280_humidity;BME280_pressure;Samples;Min_cycle;Max_cycle;Signal;HPM_P1;HPM_P2
2021/10/01 00:02:07;;;;;;;4.18;2.35;;;9.90;75.40;;;8.50;77.94;96836.38;4977744;28;20489;-65
2021/10/01 00:04:33;;;;;;;3.03;2.15;;;9.90;75.40;;;8.47;77.47;96830.63;4944691;28;20507;-65
2021/10/01 00:06:58;;;;;;;5.53;2.88;;;9.90;75.40;;;8.45;77.88;96832.59;4962695;28;20126;-65
2021/10/01 00:09:24;;;;;;;4.47;2.25;;;9.90;75.60;;;8.44;78.23;96826.53;4942831;28;20108;-65
2021/10/01 00:11:53;;;;;;;3.50;2.33;;;9.90;75.70;;;8.45;78.20;96833.41;4978037;28;20114;-65
2021/10/01 00:14:25;;;;;;;4.15;2.30;;;9.90;75.70;;;8.45;78.38;96825.53;4978498;28;20042;-65
2021/10/01 00:16:51;;;;;;;3.97;2.40;;;9.90;75.60;;;8.45;77.88;96822.94;4990763;28;20490;-65
2021/10/01 00:19:17;;;;;;;4.05;2.50;;;9.90;75.40;;;8.44;77.77;96815.22;4978168;28;20040;-65
2021/10/01 00:21:43;;;;;;;4.25;2.38;;;9.80;75.40;;;8.43;77.54;96827.50;4960933;28;20119;-65
2021/10/01 00:24:09;;;;;;;3.30;2.28;;;9.80;75.30;;;8.41;77.89;96821.59;4977077;28;20487;-65
2021/10/01 00:26:36;;;;;;;6.03;2.45;;;9.90;75.40;;;8.40;77.93;96819.97;4961675;28;20033;-65
2021/10/01 00:29:02;;;;;;;4.57;2.40;;;9.80;75.50;;;8.39;78.06;96818.31;4942027;28;20038;-65
2021/10/01 00:31:28;;;;;;;3.33;2.47;;;9.90;75.50;;;8.37;78.08;96820.25;4969113;28;20038;-65
2021/10/01 00:33:54;;;;;;;5.35;2.70;;;9.80;75.40;;;8.35;78.08;96816.97;4961234;28;20537;-64
2021/10/01 00:36:19;;;;;;;5.90;2.65;;;9.80;75.40;;;8.32;78.41;96819.88;4945228;28;20518;-65
2021/10/01 00:38:45;;;;;;;8.23;2.97;;;9.80;75.40;;;8.31;78.26;96815.63;4946026;28;20467;-65
2021/10/01 00:41:11;;;;;;;4.00;2.40;;;9.80;75.40;;;8.27;77.98;96814.28;4944800;28;20061;-65
2021/10/01 00:43:37;;;;;;;3.45;2.35;;;9.70;75.30;;;8.23;77.77;96813.78;4945825;28;20038;-65
2021/10/01 00:46:02;;;;;;;3.88;2.65;;;9.70;75.40;;;8.20;78.51;96818.53;4944795;28;20030;-65
2021/10/01 00:48:28;;;;;;;4.72;2.47;;;9.60;75.70;;;8.18;78.72;96810.81;4959256;28;20034;-65
2021/10/01 00:50:54;;;;;;;4.72;2.55;;;9.60;76.00;;;8.16;78.81;96814.56;4941242;28;20137;-65
2021/10/01 00:53:20;;;;;;;6.72;2.75;;;9.60;76.30;;;8.15;79.06;96811.13;4993773;28;20065;-65
2021/10/01 00:55:47;;;;;;;3.50;2.75;;;9.60;76.30;;;8.16;78.92;96812.78;4977443;28;20042;-65
2021/10/01 00:58:13;;;;;;;5.47;2.60;;;9.60;76.20;;;8.15;78.62;96805.06;4960304;28;20129;-65
2021/10/01 01:00:53;;;;;;;3.25;2.47;;;9.60;76.30;;;8.13;79.11;96804.38;4960601;28;20571;-65
2021/10/01 01:03:19;;;;;;;4.32;2.58;;;9.60;76.30;;;8.13;78.75;96804.38;4967255;28;20089;-65
2021/10/01 01:06:25;;;;;;;5.38;3.00;;;9.60;76.30;;;8.12;79.90;96800.13;4960954;28;20502;-65
2021/10/01 01:09:37;;;;;;;4.53;2.85;;;9.60;76.30;;;8.09;80.83;96795.19;4960014;28;20033;-65
2021/10/01 01:13:00;;;;;;;5.93;2.60;;;9.60;76.50;;;8.07;80.63;96792.72;4964358;28;20503;-65
2021/10/01 01:15:32;;;;;;;2.97;2.65;;;9.60;76.60;;;8.05;79.34;96789.44;4902576;29;20036;-65
2021/10/01 01:18:08;;;;;;;4.35;2.55;;;9.50;76.60;;;8.05;80.56;96786.00;4915225;29;20027;-64
2021/10/01 01:20:52;;;;;;;4.30;2.83;;;9.50;76.70;;;8.04;80.60;96781.75;4941232;28;20049;-65
2021/10/01 01:24:21;;;;;;;5.55;2.83;;;9.50;76.90;;;8.05;80.72;96788.63;4972634;28;20030;-65
2021/10/01 01:27:06;;;;;;;6.00;2.80;;;9.50;76.90;;;8.03;80.36;96780.09;4969338;28;20043;-65
2021/10/01 01:29:45;;;;;;;7.25;2.72;;;9.50;76.70;;;7.99;80.24;96775.19;4964684;28;20063;-65
2021/10/01 01:32:17;;;;;;;7.82;3.08;;;9.40;76.60;;;7.95;80.15;96771.22;4960614;28;20052;-64
2021/10/01 01:34:54;;;;;;;6.40;2.80;;;9.40;76.70;;;7.92;81.02;96771.56;4999954;28;20057;-65
2021/10/01 01:37:27;;;;;;;4.70;2.83;;;9.40;77.00;;;7.90;80.11;96763.00;4969130;28;20376;-65
2021/10/01 01:39:54;;;;;;;5.25;3.03;;;9.40;77.10;;;7.90;79.83;96755.13;4957852;28;20524;-66
2021/10/01 01:42:19;;;;;;;5.63;2.88;;;9.40;77.30;;;7.91;80.27;96750.72;4958726;28;20049;-65
2021/10/01 01:44:45;;;;;;;4.07;3.03;;;9.50;77.20;;;7.90;80.27;96760.38;4977049;28;20116;-66
2021/10/01 01:47:11;;;;;;;4.63;2.90;;;9.40;77.20;;;7.91;80.05;96756.78;4975364;28;20440;-65
2021/10/01 01:49:37;;;;;;;5.25;3.22;;;9.50;77.20;;;7.91;80.60;96746.31;4974261;28;20129;-65
2021/10/01 01:52:03;;;;;;;5.57;3.40;;;9.40;77.30;;;7.92;80.70;96747.97;4937792;28;20054;-64
2021/10/01 01:54:29;;;;;;;4.88;3.00;;;9.50;77.50;;;7.92;80.58;96742.75;4957348;28;20034;-65
2021/10/01 01:56:55;;;;;;;6.15;3.40;;;9.40;77.50;;;7.89;80.81;96748.25;4964717;28;20052;-65
2021/10/01 01:59:21;;;;;;;6.65;3.60;;;9.40;77.60;;;7.87;80.73;96750.22;4972859;28;20042;-65
2021/10/01 02:01:47;;;;;;;5.47;3.40;;;9.40;77.60;;;7.88;81.12;96745.81;4960190;28;20034;-65
2021/10/01 02:04:14;;;;;;;5.38;3.67;;;9.40;77.60;;;7.87;81.09;96737.13;4991174;28;20036;-66
2021/10/01 02:06:40;;;;;;;4.22;3.25;;;9.30;77.70;;;7.85;81.29;96731.22;4976137;28;20060;-65
2021/10/01 02:09:05;;;;;;;7.32;3.28;;;9.40;77.70;;;7.85;80.75;96730.41;4972640;28;20031;-65
2021/10/01 02:11:31;;;;;;;4.35;2.75;;;9.40;77.60;;;7.84;80.89;96726.16;4991745;28;20038;-65
2021/10/01 02:13:58;;;;;;;4.60;3.20;;;9.30;77.60;;;7.80;81.24;96725.63;4984234;28;20123;-66
2021/10/01 02:16:25;;;;;;;4.97;3.33;;;9.20;77.40;;;7.75;81.04;96722.69;4976076;28;20076;-65
2021/10/01 02:18:50;;;;;;;6.15;3.35;;;9.20;77.40;;;7.71;80.64;96721.34;4981264;28;20033;-65
2021/10/01 02:21:17;;;;;;;11.88;9.50;;;9.20;77.50;;;7.66;81.24;96713.13;4943717;28;20058;-65
2021/10/01 02:23:43;;;;;;;19.67;15.77;;;9.10;78.10;;;7.68;81.05;96716.41;4976308;28;20049;-66
2021/10/01 02:29:25;;;;;;;9.85;6.68;;;9.20;78.10;;;7.70;83.00;96716.28;4967873;28;20122;-65
2021/10/01 02:31:59;;;;;;;11.90;8.88;;;9.20;78.20;;;7.68;81.77;96711.97;4978274;28;20099;-65
2021/10/01 02:34:37;;;;;;;7.03;6.05;;;9.20;78.00;;;7.69;82.16;96710.19;4985667;28;20041;-65
2021/10/01 02:37:05;;;;;;;8.52;5.38;;;9.10;77.80;;;7.67;81.48;96714.75;4940541;28;20053;-65
2021/10/01 02:39:31;;;;;;;5.82;4.05;;;9.20;77.80;;;7.64;80.92;96708.03;4925248;28;20034;-65
2021/10/01 02:41:57;;;;;;;8.00;3.90;;;9.10;77.60;;;7.62;81.31;96698.69;4971937;28;20111;-66
2021/10/01 02:44:23;;;;;;;10.18;5.65;;;9.10;77.60;;;7.55;81.22;96697.69;4972204;28;20109;-68
2021/10/01 02:46:49;;;;;;;5.53;4.57;;;9.00;78.20;;;7.50;81.41;96706.00;4990843;28;20080;-68
2021/10/01 02:49:15;;;;;;;7.93;5.00;;;8.90;78.50;;;7.49;81.73;96695.69;4955732;28;20114;-66
2021/10/01 02:51:46;;;;;;;12.00;6.88;;;9.00;78.70;;;7.51;82.66;96691.94;4958360;28;20041;-68
2021/10/01 02:54:13;;;;;;;11.70;7.60;;;9.10;78.70;;;7.48;82.38;96691.44;4945845;28;20488;-66
2021/10/01 02:56:46;;;;;;;19.85;13.13;;;9.00;78.60;;;7.44;82.20;96688.28;4958746;28;20169;-65
2021/10/01 02:59:11;;;;;;;8.80;7.07;;;8.90;78.70;;;7.42;82.13;96686.81;4969673;28;20503;-66
2021/10/01 03:01:37;;;;;;;10.02;6.88;;;8.90;78.60;;;7.42;82.01;96692.03;4950113;28;20031;-65
2021/10/01 03:04:09;;;;;;;8.10;4.97;;;9.00;78.60;;;7.42;82.16;96686.81;4942965;28;20109;-65
2021/10/01 03:06:38;;;;;;;5.13;2.92;;;8.90;78.50;;;7.42;82.24;96684.19;4960023;28;20144;-65
2021/10/01 03:09:03;;;;;;;5.35;3.63;;;9.00;78.40;;;7.42;81.64;96686.81;4951045;28;20125;-65
2021/10/01 03:11:30;;;;;;;6.50;3.90;;;9.10;78.40;;;7.43;82.14;96688.44;4955985;28;20487;-65
2021/10/01 03:13:56;;;;;;;5.30;3.25;;;9.00;78.20;;;7.45;82.11;96682.06;4977289;28;20108;-65
2021/10/01 03:16:22;;;;;;;6.75;3.30;;;9.10;77.90;;;7.43;81.68;96684.03;4962194;28;20463;-65
2021/10/01 03:18:48;;;;;;;7.03;3.50;;;9.00;77.90;;;7.41;82.08;96682.53;4958561;28;20080;-65
2021/10/01 03:21:15;;;;;;;6.78;4.13;;;8.90;78.10;;;7.35;82.11;96682.19;4959123;28;20347;-65
2021/10/01 03:23:41;;;;;;;7.30;3.67;;;8.90;78.10;;;7.35;81.77;96679.56;4962641;28;20072;-65
2021/10/01 03:26:06;;;;;;;10.10;5.63;;;8.90;78.50;;;7.37;82.44;96680.25;4978706;28;20101;-65
2021/10/01 03:28:34;;;;;;;10.93;7.00;;;8.90;78.70;;;7.35;82.08;96682.19;4978550;28;20121;-66
2021/10/01 03:31:00;;;;;;;13.00;9.95;;;8.90;78.60;;;7.34;82.27;96677.94;4978940;28;20391;-65
2021/10/01 03:33:27;;;;;;;21.27;16.90;;;8.90;78.50;;;7.33;82.68;96673.69;4983302;28;20058;-65
2021/10/01 03:35:54;;;;;;;21.90;17.77;;;8.90;78.20;;;7.30;82.32;96667.94;4979742;28;20514;-65
2021/10/01 03:38:19;;;;;;;8.40;6.80;;;8.90;78.00;;;7.28;81.97;96668.09;4969126;28;20517;-66
2021/10/01 03:40:46;;;;;;;5.40;4.55;;;8.80;77.90;;;7.27;82.31;96658.59;4978744;28;20101;-66
2021/10/01 03:43:13;;;;;;;12.63;4.28;;;8.70;78.10;;;7.25;81.94;96671.03;4978897;28;20038;-65
2021/10/01 03:45:39;;;;;;;6.85;4.13;;;8.70;78.30;;;7.25;82.08;96663.16;4978999;28;20030;-65
2021/10/01 03:48:05;;;;;;;5.47;3.92;;;8.80;78.40;;;7.25;82.20;96660.56;4977694;28;20046;-65
2021/10/01 03:50:32;;;;;;;6.47;3.38;;;8.80;78.40;;;7.26;82.07;96662.19;4961224;28;20033;-69
2021/10/01 03:52:58;;;;;;;6.60;3.50;;;8.80;78.10;;;7.22;82.08;96660.00;4960778;28;20049;-66
2021/10/01 03:55:24;;;;;;;5.05;3.30;;;8.80;77.80;;;7.21;82.18;96661.00;4955843;28;20023;-66
2021/10/01 03:57:50;;;;;;;5.18;3.50;;;8.80;77.60;;;7.17;81.98;96652.63;4943591;28;20487;-65
2021/10/01 04:00:17;;;;;;;8.40;3.72;;;8.80;77.40;;;7.16;82.00;96656.22;4948455;28;20037;-66
2021/10/01 04:02:42;;;;;;;7.25;3.70;;;8.70;77.50;;;7.14;81.57;96650.34;4962489;28;20080;-67
2021/10/01 04:05:08;;;;;;;10.85;7.50;;;8.60;77.90;;;7.12;81.85;96644.44;4979362;28;20042;-66
2021/10/01 04:07:34;;;;;;;10.05;7.47;;;8.70;78.20;;;7.09;82.19;96644.75;4961475;28;20037;-67
2021/10/01 04:10:00;;;;;;;11.48;9.27;;;8.70;78.40;;;7.10;82.51;96646.38;4962098;28;20058;-66
2021/10/01 04:12:27;;;;;;;15.50;12.00;;;8.70;78.50;;;7.10;82.66;96629.88;4958686;28;20046;-66
2021/10/01 04:14:53;;;;;;;14.73;12.85;;;8.70;78.60;;;7.08;82.31;96635.25;4951933;28;20045;-67
2021/10/01 04:17:18;;;;;;;9.70;5.97;;;8.70;78.70;;;7.09;82.91;96638.69;4958719;28;20030;-66
2021/10/01 04:19:44;;;;;;;9.05;4.40;;;8.70;78.60;;;7.09;83.03;96636.91;4978330;28;20030;-66
2021/10/01 04:22:10;;;;;;;5.22;4.28;;;8.70;78.40;;;7.10;82.69;96646.38;4978093;28;20621;-66
2021/10/01 04:24:36;;;;;;;7.75;4.15;;;8.70;77.90;;;7.06;82.02;96637.22;4977776;28;20414;-66
2021/10/01 04:27:01;;;;;;;5.35;4.03;;;8.60;77.60;;;7.04;81.56;96633.94;4978480;28;20135;-66
2021/10/01 04:29:27;;;;;;;7.53;3.97;;;8.60;77.70;;;7.01;82.32;96632.41;4963434;28;20096;-67
2021/10/01 04:31:53;;;;;;;6.05;3.55;;;8.60;77.70;;;6.99;82.01;96631.75;4975272;28;20121;-66
2021/10/01 04:34:19;;;;;;;5.45;3.60;;;8.60;77.90;;;6.97;81.97;96632.88;4976329;28;20153;-66
2021/10/01 04:36:45;;;;;;;4.88;3.83;;;8.60;78.20;;;6.91;81.98;96630.88;4987156;28;20042;-66
2021/10/01 04:39:12;;;;;;;7.70;4.43;;;8.50;78.30;;;6.89;82.35;96625.00;4945372;28;20390;-66
2021/10/01 04:41:38;;;;;;;4.95;4.00;;;8.40;78.40;;;6.86;82.34;96627.91;4946551;28;20041;-66
2021/10/01 04:44:06;;;;;;;6.28;4.00;;;8.40;78.50;;;6.83;82.61;96633.47;4961903;28;20117;-66
2021/10/01 04:46:31;;;;;;;6.25;3.45;;;8.40;78.60;;;6.81;82.93;96623.16;4978894;28;20433;-66
2021/10/01 04:48:57;;;;;;;5.82;3.60;;;8.40;78.70;;;6.81;82.75;96638.03;4993948;28;20076;-66
2021/10/01 04:51:23;;;;;;;10.70;4.10;;;8.40;78.70;;;6.81;82.62;96632.78;4977943;28;20502;-66
2021/10/01 04:53:48;;;;;;;5.85;3.50;;;8.40;78.60;;;6.80;82.83;96639.00;4963904;28;20117;-67
2021/10/01 04:56:14;;;;;;;6.32;4.22;;;8.40;78.10;;;6.79;82.68;96637.31;4982069;28;20033;-66
2021/10/01 04:58:40;;;;;;;4.93;3.92;;;8.30;78.10;;;6.75;82.66;96647.28;4958637;28;20438;-66
2021/10/01 05:01:06;;;;;;;4.85;4.30;;;8.30;78.20;;;6.70;82.41;96639.88;4982221;28;20022;-66
2021/10/01 05:03:31;;;;;;;5.53;4.05;;;8.20;78.60;;;6.67;83.00;96637.56;4977744;28;20120;-66
2021/10/01 05:05:57;;;;;;;5.90;3.83;;;8.20;78.80;;;6.66;82.46;96632.50;4978005;28;20088;-67
2021/10/01 05:08:23;;;;;;;6.10;4.00;;;8.20;78.90;;;6.63;82.76;96633.63;4976978;28;20458;-66
2021/10/01 05:10:49;;;;;;;5.40;4.13;;;8.20;79.00;;;6.60;82.92;96633.94;4956193;28;20269;-66
2021/10/01 05:13:14;;;;;;;6.32;4.32;;;8.20;79.20;;;6.58;83.22;96630.66;4958208;28;20111;-66
2021/10/01 05:15:42;;;;;;;6.13;4.13;;;8.10;79.40;;;6.58;83.74;96625.44;4942484;28;20109;-66
2021/10/01 05:18:09;;;;;;;6.78;4.75;;;8.20;79.60;;;6.58;83.75;96629.84;4958366;28;20030;-67
2021/10/01 05:20:35;;;;;;;6.68;4.53;;;8.20;79.80;;;6.59;84.38;96632.28;4949634;28;20368;-66
2021/10/01 05:23:01;;;;;;;6.07;4.55;;;8.20;79.90;;;6.60;83.98;96638.34;4954480;28;20096;-66
2021/10/01 05:25:27;;;;;;;5.05;4.55;;;8.30;79.80;;;6.59;84.18;96632.28;4961245;28;20045;-66
2021/10/01 05:27:53;;;;;;;9.00;4.72;;;8.20;79.80;;;6.59;84.23;96637.53;4977651;28;20111;-66
2021/10/01 05:30:19;;;;;;;5.53;4.22;;;8.30;79.70;;;6.63;83.97;96633.63;4960746;28;20038;-66
2021/10/01 05:32:45;;;;;;;6.70;4.55;;;8.30;79.60;;;6.63;84.32;96631.00;4948823;28;20460;-66
2021/10/01 05:35:10;;;;;;;5.65;4.47;;;8.30;79.50;;;6.64;84.43;96634.44;4942285;28;20046;-66
2021/10/01 05:37:36;;;;;;;6.53;4.22;;;8.30;79.60;;;6.62;84.09;96637.22;4945117;28;20377;-66
2021/10/01 05:40:03;;;;;;;7.60;4.55;;;8.30;79.70;;;6.62;84.21;96631.16;4976286;28;20046;-66
2021/10/01 05:42:29;;;;;;;5.85;4.63;;;8.30;79.80;;;6.63;85.16;96633.63;4958338;28;20043;-66
2021/10/01 05:44:55;;;;;;;6.00;4.78;;;8.40;80.00;;;6.64;84.39;96634.44;4976860;28;20117;-66
2021/10/01 05:47:20;;;;;;;8.27;5.00;;;8.30;80.00;;;6.65;84.51;96647.38;4993095;28;20172;-66
2021/10/01 05:49:47;;;;;;;5.43;4.47;;;8.40;80.00;;;6.69;84.46;96633.00;4976848;28;20050;-66
2021/10/01 05:52:25;;;;;;;5.85;4.70;;;8.40;80.00;;;6.72;85.13;96637.94;4991898;28;20030;-66
2021/10/01 05:54:51;;;;;;;6.90;4.80;;;8.50;79.90;;;6.75;84.67;96635.00;4994666;28;20446;-65
2021/10/01 05:57:17;;;;;;;6.22;4.78;;;8.40;79.90;;;6.77;85.25;96632.25;4950490;28;20026;-66
2021/10/01 05:59:45;;;;;;;10.10;5.25;;;8.50;79.70;;;6.79;84.83;96638.19;4957321;28;20105;-66
2021/10/01 06:02:20;;;;;;;7.18;5.13;;;8.60;79.60;;;6.83;85.50;96626.44;4968659;28;20031;-65
2021/10/01 06:04:47;;;;;;;7.05;4.50;;;8.60;79.60;;;6.89;84.94;96627.59;4979858;28;20118;-66
2021/10/01 06:07:13;;;;;;;7.22;5.57;;;8.70;79.60;;;6.92;84.80;96625.50;4957768;28;20038;-65
2021/10/01 06:09:43;;;;;;;8.63;6.40;;;8.70;79.50;;;6.97;85.70;96625.84;4956928;28;20495;-66
2021/10/01 06:12:10;;;;;;;18.35;14.05;;;8.80;79.40;;;7.02;85.22;96628.03;4956807;28;20046;-66
2021/10/01 06:14:36;;;;;;;25.63;19.83;;;8.90;79.90;;;7.08;85.37;96632.66;4957524;28;20030;-66
2021/10/01 06:17:03;;;;;;;12.55;7.95;;;9.00;80.10;;;7.16;86.06;96635.31;4973395;28;20042;-66
2021/10/01 06:19:31;;;;;;;8.48;6.00;;;9.10;80.00;;;7.24;86.22;96627.53;4956666;28;20061;-66
2021/10/01 06:21:58;;;;;;;7.28;5.38;;;9.10;80.00;;;7.31;86.33;96628.53;4957544;28;20089;-66
2021/10/01 06:24:23;;;;;;;6.72;5.68;;;9.30;79.60;;;7.39;86.15;96627.75;4992113;28;20041;-65
2021/10/01 06:26:49;;;;;;;7.50;4.85;;;9.30;79.40;;;7.47;86.38;96621.72;4984436;28;20161;-65
2021/10/01 06:29:15;;;;;;;7.68;5.32;;;9.40;79.40;;;7.57;86.29;96622.44;4975318;28;20124;-66
2021/10/01 06:31:42;;;;;;;7.88;5.03;;;9.60;79.10;;;7.65;86.22;96625.88;4972455;28;20026;-65
2021/10/01 06:34:09;;;;;;;5.65;4.50;;;9.70;79.00;;;7.76;86.29;96632.66;4940415;28;20209;-66
2021/10/01 06:36:36;;;;;;;7.30;4.78;;;9.80;79.00;;;7.88;86.46;96620.91;4943945;28;20180;-65
2021/10/01 06:39:02;;;;;;;7.35;4.50;;;10.00;79.10;;;8.05;86.67;96626.19;4976056;28;20553;-65
2021/10/01 06:41:29;;;;;;;7.82;4.10;;;10.10;78.80;;;8.17;86.19;96624.91;4975997;28;20029;-65
2021/10/01 06:44:04;;;;;;;7.88;4.25;;;10.30;77.80;;;8.29;85.83;96629.69;4976495;28;20030;-66
2021/10/01 08:19:34;;;;;;;2.95;1.95;;;18.00;54.30;;;14.83;69.11;96610.75;4976279;28;20072;-66
2021/10/01 08:22:00;;;;;;;5.43;2.33;;;18.40;53.40;;;15.02;68.31;96602.00;4983762;28;20038;-67
2021/10/01 08:24:27;;;;;;;3.00;2.03;;;18.50;52.40;;;15.23;67.23;96609.72;4946383;28;20058;-66
2021/10/01 08:26:53;;;;;;;3.80;1.85;;;18.70;51.50;;;15.40;67.86;96602.16;4946689;28;20030;-65
2021/10/01 08:29:19;;;;;;;3.90;2.22;;;18.80;51.60;;;15.57;66.80;96602.50;4946068;28;20030;-66
2021/10/01 08:31:45;;;;;;;5.53;2.92;;;18.80;50.50;;;15.74;66.08;96597.63;4960014;28;20427;-66
2021/10/01 08:34:11;;;;;;;4.53;2.30;;;18.80;50.70;;;15.91;65.71;96594.28;4945334;28;20030;-66
2021/10/01 08:36:37;;;;;;;5.95;2.30;;;19.20;50.10;;;16.05;64.43;96594.22;4942796;28;20042;-66
2021/10/01 08:39:04;;;;;;;4.57;2.58;;;19.20;49.80;;;16.18;64.67;96602.94;4958691;28;20057;-67
2021/10/01 08:41:30;;;;;;;5.97;2.10;;;19.50;49.40;;;16.43;64.05;96591.59;4942759;28;20129;-66
2021/10/01 08:43:56;;;;;;;3.72;2.13;;;19.80;49.60;;;16.52;63.15;96588.47;4942827;28;20488;-66
2021/10/01 08:46:22;;;;;;;3.70;2.38;;;19.60;48.20;;;16.73;63.34;96594.47;4943432;28;20038;-66
2021/10/01 08:48:48;;;;;;;4.82;2.67;;;20.00;48.00;;;16.96;62.57;96581.41;4965961;28;20121;-66
2021/10/01 08:51:15;;;;;;;2.72;2.30;;;20.20;48.50;;;17.21;61.65;96588.59;4950941;28;20038;-66
2021/10/01 08:53:40;;;;;;;3.70;2.47;;;20.70;46.60;;;17.45;61.47;96585.09;4961819;28;20084;-66
2021/10/01 08:56:06;;;;;;;5.57;2.30;;;21.00;46.80;;;17.69;60.47;96581.59;4961149;28;20026;-66
2021/10/01 08:58:32;;;;;;;4.07;2.30;;;21.10;45.50;;;17.96;60.32;96581.28;4961283;28;20050;-66
2021/10/01 09:00:59;;;;;;;3.15;1.90;;;21.60;45.10;;;18.28;59.85;96576.53;4961765;28;20068;-66
2021/10/01 09:03:25;;;;;;;3.17;1.90;;;22.10;43.80;;;18.47;58.72;96577.31;4961793;28;20048;-66
2021/10/01 09:05:51;;;;;;;3.25;1.58;;;22.10;43.10;;;18.73;57.79;96573.47;4961976;28;20116;-66
2021/10/01 09:08:19;;;;;;;3.33;1.83;;;22.50;42.60;;;19.03;57.31;96565.44;4977577;28;20053;-66
2021/10/01 09:11:10;;;;;;;2.25;1.60;;;22.70;42.30;;;19.32;53.68;96564.50;4961675;28;20038;-66
2021/10/01 09:13:36;;;;;;;2.70;1.52;;;23.00;41.70;;;19.42;57.33;96567.38;4977575;28;20060;-66
2021/10/01 09:16:05;;;;;;;2.92;1.40;;;22.90;41.10;;;19.58;55.34;96557.91;4968963;28;20435;-66
2021/10/01 09:18:34;;;;;;;6.05;1.58;;;23.10;41.00;;;19.72;53.77;96553.94;4993631;28;20704;-66
2021/10/01 09:21:08;;;;;;;3.88;1.50;;;23.40;40.70;;;19.82;52.34;96548.78;4977178;28;20026;-66
2021/10/01 09:23:41;;;;;;;3.40;1.60;;;23.50;40.50;;;20.02;54.62;96551.06;4993782;28;20058;-66
2021/10/01 09:26:14;;;;;;;3.25;1.60;;;24.10;39.80;;;20.23;52.33;96554.13;4978561;28;20112;-66
2021/10/01 09:29:03;;;;;;;3.10;1.60;;;24.50;38.60;;;20.34;50.00;96546.03;4969185;28;20137;-66
2021/10/01 09:31:34;;;;;;;2.25;1.42;;;24.80;37.00;;;20.55;53.05;96549.13;4979461;28;20121;-66
2021/10/01 09:34:00;;;;;;;3.28;1.75;;;25.60;36.60;;;20.72;52.73;96542.75;4992822;28;20553;-67
2021/10/01 09:36:26;;;;;;;2.40;1.27;;;26.00;35.90;;;20.87;51.84;96546.72;4922635;28;20054;-66
2021/10/01 09:38:54;;;;;;;3.65;1.23;;;26.50;34.90;;;21.08;51.56;96546.00;4922847;28;20030;-66
2021/10/01 09:41:25;;;;;;;4.30;1.73;;;27.10;33.70;;;21.44;51.60;96543.88;4923260;28;20023;-66
2021/10/01 09:44:13;;;;;;;3.45;1.52;;;28.10;32.00;;;21.93;48.22;96536.72;4950961;28;20062;-66
2021/10/01 09:46:45;;;;;;;2.80;1.30;;;29.20;31.10;;;22.47;47.82;96526.09;4926327;28;20069;-66
2021/10/01 09:49:14;;;;;;;3.92;1.60;;;30.00;29.40;;;22.94;51.62;96520.91;4957624;28;20037;-66
2021/10/01 09:51:46;;;;;;;3.60;1.00;;;30.30;28.00;;;23.40;46.30;96513.97;4973714;28;20542;-65
2021/10/01 09:54:13;;;;;;;1.88;1.20;;;31.10;27.40;;;23.97;49.61;96517.72;4956317;28;20061;-67
2021/10/01 09:56:39;;;;;;;2.60;0.90;;;32.30;26.60;;;24.50;48.58;96511.19;4957676;28;20049;-66
2021/10/01 09:59:15;;;;;;;3.85;1.08;;;33.00;25.50;;;24.97;42.13;96510.94;4944778;28;20430;-66
2021/10/01 10:02:02;;;;;;;2.22;1.23;;;34.00;24.30;;;25.48;41.64;96494.69;4992812;28;20030;-66
2021/10/01 10:04:36;;;;;;;1.73;1.15;;;34.80;23.70;;;25.99;41.95;96489.13;4954326;28;20049;-67
2021/10/01 10:07:37;;;;;;;2.72;1.10;;;35.40;23.00;;;26.54;38.83;96495.31;4938209;28;20043;-67
2021/10/01 10:10:06;;;;;;;4.47;1.10;;;36.50;21.60;;;26.97;41.46;96490.94;4941437;28;20031;-66
2021/10/01 10:12:44;;;;;;;1.85;1.00;;;36.90;20.60;;;27.44;38.34;96489.41;4938028;28;20034;-67
2021/10/01 10:15:16;;;;;;;1.58;0.98;;;37.50;20.30;;;27.76;36.26;96484.19;4948325;28;20035;-67
2021/10/01 10:17:50;;;;;;;1.50;0.77;;;37.90;19.50;;;28.23;36.55;96471.66;4937708;28;20133;-67
2021/10/01 10:20:16;;;;;;;1.83;0.70;;;38.50;18.90;;;28.60;39.68;96476.28;4905901;28;20038;-67
2021/10/01 10:22:42;;;;;;;2.70;1.08;;;38.50;18.90;;;29.08;39.13;96473.38;4938033;28;20042;-67
2021/10/01 10:25:08;;;;;;;3.40;1.00;;;39.30;18.90;;;29.62;38.59;96462.88;4937939;28;20440;-67
2021/10/01 10:27:34;;;;;;;1.85;1.05;;;39.70;18.90;;;29.93;37.77;96461.16;4937440;28;20026;-67
2021/10/01 10:30:00;;;;;;;5.97;1.00;;;40.20;18.00;;;30.40;36.23;96462.59;4939566;28;20029;-68
2021/10/01 10:32:32;;;;;;;2.17;0.80;;;40.30;17.40;;;30.75;31.98;96458.22;4946898;28;20485;-66
2021/10/01 10:35:06;;;;;;;4.47;0.95;;;40.90;17.10;;;31.08;31.24;96456.06;4953635;28;20578;-67
2021/10/01 10:37:42;;;;;;;3.75;1.10;;;40.90;17.40;;;31.37;30.50;96452.06;4961620;28;20057;-67
2021/10/01 10:40:13;;;;;;;1.73;0.80;;;41.10;17.00;;;31.73;31.02;96448.38;4955917;28;20035;-65
2021/10/01 10:42:46;;;;;;;1.60;0.85;;;41.40;16.70;;;32.06;29.57;96440.59;4940904;28;20046;-65
2021/10/01 10:45:17;;;;;;;3.95;0.85;;;41.80;16.10;;;32.42;31.64;96443.06;4925828;28;20438;-65
2021/10/01 10:47:46;;;;;;;3.40;0.80;;;42.30;16.30;;;32.73;29.32;96432.75;4956994;28;20038;-65
2021/10/01 10:50:21;;;;;;;1.33;0.80;;;42.60;15.80;;;33.05;27.60;96427.94;4955932;28;20069;-65
2021/10/01 10:53:06;;;;;;;1.65;0.85;;;43.00;15.80;;;33.67;27.79;96427.34;4988779;28;20030;-65
2021/10/01 10:55:33;;;;;;;1.42;0.88;;;43.50;15.80;;;34.02;29.93;96414.31;4988950;28;20039;-65
2021/10/01 10:57:59;;;;;;;0.93;0.70;;;43.50;15.30;;;34.22;29.82;96416.28;4973405;28;20018;-65
2021/10/01 11:00:35;;;;;;;3.47;0.90;;;43.60;15.10;;;34.65;26.49;96406.94;4982839;28;20121;-65
2021/10/01 11:03:28;;;;;;;1.13;0.65;;;44.40;15.30;;;35.12;25.22;96404.69;4977109;28;20057;-65
2021/10/01 11:06:14;;;;;;;3.38;0.80;;;44.50;14.80;;;35.47;25.46;96401.53;4961856;28;20025;-65
2021/10/01 11:08:45;;;;;;;2.28;0.70;;;45.00;14.60;;;35.75;25.03;96399.69;5007645;28;20133;-65
2021/10/01 11:11:29;;;;;;;3.20;0.88;;;45.30;14.40;;;36.04;24.63;96400.59;4959981;28;20048;-65
2021/10/01 11:14:14;;;;;;;1.80;0.90;;;45.50;14.50;;;36.28;24.55;96392.31;5009201;28;20432;-65
2021/10/01 11:16:44;;;;;;;1.98;0.77;;;45.40;14.40;;;36.38;24.26;96389.09;4991493;28;20092;-65
2021/10/01 11:19:10;;;;;;;1.88;0.80;;;44.90;14.30;;;36.66;25.92;96389.06;4944148;28;20042;-66
2021/10/01 11:21:43;;;;;;;2.20;0.75;;;45.30;14.30;;;36.89;23.12;96386.56;4943581;28;20042;-66
2021/10/01 11:24:21;;;;;;;1.95;0.80;;;45.20;13.80;;;37.08;22.48;96381.19;4941149;28;20092;-65
2021/10/01 11:26:58;;;;;;;2.38;1.00;;;45.30;14.20;;;37.38;22.27;96378.06;4956144;28;20118;-65
2021/10/01 11:29:37;;;;;;;1.23;0.80;;;45.60;14.10;;;37.48;22.02;96376.72;4972046;28;20054;-65
2021/10/01 11:32:19;;;;;;;1.75;1.10;;;45.70;13.70;;;37.61;21.64;96370.75;4975189;28;20045;-65
2021/10/01 11:34:48;;;;;;;4.32;1.55;;;45.60;13.90;;;37.96;22.50;96364.47;4975659;28;20132;-65
2021/10/01 11:37:23;;;;;;;1.85;1.05;;;45.50;14.10;;;38.10;21.91;96366.75;4966096;28;20184;-65
2021/10/01 11:39:50;;;;;;;2.60;0.80;;;45.50;14.30;;;38.36;23.36;96355.13;4971777;28;20080;-65
2021/10/01 11:42:24;;;;;;;2.25;0.93;;;45.60;14.10;;;38.61;21.16;96353.66;4955762;28;20138;-67
2021/10/01 11:44:50;;;;;;;6.78;1.02;;;45.70;14.40;;;38.64;23.06;96355.69;4944354;28;20072;-65
2021/10/01 11:47:16;;;;;;;1.70;0.90;;;45.60;14.10;;;38.87;22.53;96351.00;4959747;28;20505;-66
2021/10/01 11:49:42;;;;;;;1.13;0.70;;;45.50;14.10;;;39.05;21.99;96345.03;4943446;28;20148;-66
2021/10/01 11:52:17;;;;;;;1.92;0.70;;;45.40;13.90;;;39.00;21.90;96340.63;4943167;28;20041;-65
2021/10/01 11:55:13;;;;;;;0.80;0.70;;;45.10;14.60;;;39.23;20.38;96335.16;4951901;28;20046;-65
2021/10/01 11:57:41;;;;;;;1.25;0.85;;;45.10;14.50;;;39.45;21.65;96328.81;4943599;28;20035;-65
2021/10/01 12:00:11;;;;;;;1.52;0.82;;;45.10;14.50;;;39.56;20.30;96330.94;4975269;28;20522;-65
2021/10/01 12:02:39;;;;;;;1.88;0.80;;;45.20;15.00;;;39.71;21.70;96328.03;4975574;28;20546;-65
2021/10/01 12:05:27;;;;;;;1.60;0.95;;;45.10;14.80;;;39.94;20.32;96325.19;4991896;28;20034;-66
2021/10/01 12:07:55;;;;;;;2.75;0.90;;;45.00;15.20;;;39.76;20.95;96315.88;4965862;28;20034;-66
2021/10/01 12:10:21;;;;;;;2.55;0.80;;;44.70;14.40;;;39.95;21.11;96306.72;4958675;28;20038;-65
2021/10/01 12:13:23;;;;;;;1.63;1.00;;;44.90;14.70;;;40.00;19.68;96298.91;4965491;28;20041;-65
2021/10/01 12:15:57;;;;;;;3.17;1.10;;;44.70;15.00;;;40.20;21.11;96296.00;4984914;28;20068;-65